Time;durP1;ratioP1;P1;durP2;ratioP2;P2;SDS_P1;SDS_P2;PMS_P1;PMS_P2;Temp;Humidity;BMP_temperature;BMP_pressure;BME280_temperature;BME280_humidity;BME280_pressure;Samples;Min_cycle;Max_cycle;Signal;HPM_P1;HPM_P2
2022/07/29 00:02:10;;;;;;;3.40;1.35;;;16.10;99.90;;;;;;5044531;28;20048;-72
2022/07/29 00:04:36;;;;;;;5.95;1.10;;;16.10;99.90;;;;;;5046489;28;20123;-72
2022/07/29 00:07:03;;;;;;;4.30;1.67;;;16.10;99.90;;;;;;5044306;28;20040;-72
2022/07/29 00:09:28;;;;;;;4.82;1.38;;;16.00;99.90;;;;;;5040278;28;20086;-72
2022/07/29 00:11:58;;;;;;;4.43;1.67;;;16.00;99.90;;;;;;5042915;28;20041;-72
2022/07/29 00:14:24;;;;;;;3.08;1.42;;;16.10;99.90;;;;;;5043736;28;20045;-72
2022/07/29 00:16:50;;;;;;;2.53;1.45;;;16.10;99.90;;;;;;5043608;28;20395;-72
2022/07/29 00:19:15;;;;;;;3.85;1.60;;;16.00;99.90;;;;;;5042610;28;20479;-72
2022/07/29 00:21:41;;;;;;;3.22;1.58;;;16.00;99.90;;;;;;5043323;28;20033;-72
2022/07/29 00:24:07;;;;;;;1.50;1.40;;;16.00;99.90;;;;;;5044069;28;20041;-72
2022/07/29 00:26:33;;;;;;;5.45;1.75;;;16.00;99.90;;;;;;5043714;28;20071;-72
2022/07/29 00:28:59;;;;;;;2.95;1.60;;;16.00;99.90;;;;;;5042786;28;20045;-72
2022/07/29 00:31:25;;;;;;;3.58;1.48;;;15.90;99.90;;;;;;5043687;28;20072;-72
2022/07/29 00:33:51;;;;;;;2.67;1.50;;;15.90;99.90;;;;;;5059338;28;20120;-72
2022/07/29 00:36:17;;;;;;;4.70;1.70;;;15.90;99.90;;;;;;5044262;28;20123;-72
2022/07/29 00:38:45;;;;;;;2.55;1.63;;;15.90;99.90;;;;;;5028398;28;20503;-72
2022/07/29 00:41:11;;;;;;;5.22;1.80;;;15.90;99.90;;;;;;5044735;28;20044;-72
2022/07/29 00:43:37;;;;;;;2.03;1.55;;;15.90;99.90;;;;;;5041379;28;20037;-72
2022/07/29 00:46:03;;;;;;;4.50;1.90;;;15.90;99.90;;;;;;5046353;28;20041;-72
2022/07/29 00:48:29;;;;;;;3.75;1.95;;;15.90;99.90;;;;;;5039263;28;20033;-72
2022/07/29 00:50:58;;;;;;;3.42;1.67;;;15.90;99.90;;;;;;5040620;28;20175;-72
2022/07/29 00:53:25;;;;;;;5.35;1.70;;;15.80;99.90;;;;;;5040742;28;20032;-72
2022/07/29 00:55:53;;;;;;;4.50;1.85;;;15.80;99.90;;;;;;5041924;28;20074;-72
2022/07/29 00:58:19;;;;;;;4.43;1.85;;;15.80;99.90;;;;;;5022946;28;20040;-72
2022/07/29 01:00:44;;;;;;;3.70;1.90;;;15.80;99.90;;;;;;5042018;28;20041;-72
2022/07/29 01:03:10;;;;;;;6.55;2.00;;;15.80;99.90;;;;;;5042792;28;20126;-72
2022/07/29 01:05:36;;;;;;;4.53;1.70;;;15.80;99.90;;;;;;5042118;28;20063;-72
2022/07/29 01:08:02;;;;;;;2.05;1.40;;;15.80;99.90;;;;;;5044476;28;20080;-72
2022/07/29 01:10:29;;;;;;;4.57;2.00;;;15.80;99.90;;;;;;5043285;28;20676;-72
2022/07/29 01:12:57;;;;;;;2.63;1.90;;;15.80;99.90;;;;;;5042921;28;20045;-72
2022/07/29 01:15:23;;;;;;;3.90;1.60;;;15.80;99.90;;;;;;5042527;28;20069;-72
2022/07/29 01:18:01;;;;;;;2.00;1.70;;;15.80;99.90;;;;;;5040138;28;20075;-73
2022/07/29 01:20:51;;;;;;;5.50;1.85;;;15.70;99.90;;;;;;5042094;28;20040;-72
2022/07/29 01:23:38;;;;;;;3.10;1.73;;;15.80;99.90;;;;;;5022172;28;20106;-71
2022/07/29 01:26:33;;;;;;;3.67;1.75;;;15.80;99.90;;;;;;5024830;28;20099;-72
2022/07/29 01:29:07;;;;;;;6.53;1.95;;;15.70;99.90;;;;;;5046098;28;20073;-72
2022/07/29 01:31:58;;;;;;;3.75;1.73;;;15.70;99.90;;;;;;5059375;28;20092;-72
2022/07/29 01:34:49;;;;;;;3.63;1.80;;;15.80;99.90;;;;;;5044718;28;20055;-73
2022/07/29 01:37:42;;;;;;;4.15;1.60;;;15.80;99.90;;;;;;5045024;28;20055;-71
2022/07/29 01:40:35;;;;;;;2.25;1.60;;;15.70;99.90;;;;;;5029385;28;20103;-72
2022/07/29 01:43:17;;;;;;;5.35;1.60;;;15.70;99.90;;;;;;5040941;28;20080;-72
2022/07/29 01:45:52;;;;;;;4.32;1.73;;;15.70;99.90;;;;;;5040778;28;20037;-73
2022/07/29 01:48:40;;;;;;;5.93;1.60;;;15.70;99.90;;;;;;5041320;28;20120;-72
2022/07/29 01:51:12;;;;;;;7.82;1.90;;;15.70;99.90;;;;;;5038818;28;20053;-72
2022/07/29 01:53:47;;;;;;;;;;;15.70;99.90;;;;;;5042469;28;20064;-73
2022/07/29 01:56:15;;;;;;;4.65;1.60;;;15.70;99.90;;;;;;5043097;28;20375;-72
2022/07/29 01:58:43;;;;;;;3.42;1.73;;;15.70;99.90;;;;;;5041752;28;20066;-73
2022/07/29 02:01:11;;;;;;;3.08;1.63;;;15.70;99.90;;;;;;5042988;28;20549;-72
2022/07/29 02:03:38;;;;;;;5.20;1.63;;;15.70;99.90;;;;;;5039851;28;20044;-72
2022/07/29 02:06:06;;;;;;;2.10;1.25;;;15.70;99.90;;;;;;5043907;28;20067;-73
2022/07/29 02:08:33;;;;;;;3.60;1.75;;;15.70;99.90;;;;;;5038302;28;20094;-72
2022/07/29 02:11:01;;;;;;;3.88;1.63;;;15.70;99.90;;;;;;5041872;28;20499;-72
2022/07/29 02:13:28;;;;;;;4.85;1.63;;;15.70;99.90;;;;;;5043547;28;20037;-73
2022/07/29 02:15:57;;;;;;;4.18;1.65;;;15.60;99.90;;;;;;5042971;28;20037;-72
2022/07/29 02:18:27;;;;;;;3.47;1.77;;;15.60;99.90;;;;;;5038921;28;20037;-72
2022/07/29 02:20:57;;;;;;;3.10;1.50;;;15.60;99.90;;;;;;5040575;28;20053;-72
2022/07/29 02:23:24;;;;;;;3.40;1.90;;;15.60;99.90;;;;;;5041566;28;20044;-72
2022/07/29 02:25:54;;;;;;;3.53;1.88;;;15.60;99.90;;;;;;5041552;28;20136;-72
2022/07/29 02:28:23;;;;;;;3.75;1.60;;;15.60;99.90;;;;;;5040086;28;20071;-72
2022/07/29 02:30:51;;;;;;;3.40;1.88;;;15.50;99.90;;;;;;5040023;28;20047;-72
2022/07/29 02:33:19;;;;;;;3.80;1.92;;;15.60;99.90;;;;;;5044189;28;20047;-72
2022/07/29 02:35:46;;;;;;;4.57;1.90;;;15.60;99.90;;;;;;5040621;28;20052;-72
2022/07/29 02:41:02;;;;;;;2.20;1.50;;;15.50;99.90;;;;;;5057579;28;20049;-72
2022/07/29 02:43:30;;;;;;;3.38;1.55;;;15.50;99.90;;;;;;5042009;28;20111;-72
2022/07/29 02:45:58;;;;;;;4.30;1.70;;;15.50;99.90;;;;;;5041664;28;20041;-72
2022/07/29 02:48:33;;;;;;;7.57;1.98;;;15.50;99.90;;;;;;5040302;28;20048;-72
2022/07/29 02:51:08;;;;;;;4.88;1.85;;;15.50;99.90;;;;;;5043122;28;20033;-72
2022/07/29 02:53:36;;;;;;;5.45;1.98;;;15.50;99.90;;;;;;5041356;28;20090;-72
2022/07/29 02:56:10;;;;;;;3.75;1.73;;;15.40;99.90;;;;;;5041404;28;20049;-72
2022/07/29 02:58:41;;;;;;;2.15;1.55;;;15.40;99.90;;;;;;5037610;28;20071;-72
2022/07/29 03:01:16;;;;;;;5.72;1.95;;;15.40;99.90;;;;;;5043535;28;20041;-72
2022/07/29 03:03:45;;;;;;;3.63;1.73;;;15.40;99.90;;;;;;5042028;28;20048;-72
2022/07/29 03:06:14;;;;;;;6.30;2.00;;;15.50;99.90;;;;;;5043109;28;20044;-72
2022/07/29 03:08:40;;;;;;;2.53;1.90;;;15.50;99.90;;;;;;5042309;28;20045;-72
2022/07/29 03:11:08;;;;;;;2.55;1.92;;;15.40;99.90;;;;;;5041943;28;20099;-72
2022/07/29 03:13:35;;;;;;;3.30;1.63;;;15.40;99.90;;;;;;5043138;28;20044;-72
2022/07/29 03:16:02;;;;;;;5.88;1.80;;;15.40;99.90;;;;;;5043552;28;20140;-72
2022/07/29 03:18:28;;;;;;;3.70;1.70;;;15.40;99.90;;;;;;5044825;28;20029;-72
2022/07/29 03:20:54;;;;;;;4.13;1.60;;;15.40;99.90;;;;;;5045046;28;20029;-72
2022/07/29 03:23:23;;;;;;;3.42;1.88;;;15.40;99.90;;;;;;5043532;28;20127;-72
2022/07/29 03:25:53;;;;;;;5.13;1.73;;;15.40;99.90;;;;;;5045239;28;20041;-72
2022/07/29 03:28:19;;;;;;;2.78;1.67;;;15.30;99.90;;;;;;5043289;28;20131;-72
2022/07/29 03:30:45;;;;;;;10.75;2.00;;;15.30;99.90;;;;;;5044958;28;20052;-72
2022/07/29 03:33:11;;;;;;;6.78;2.00;;;15.30;99.90;;;;;;5046845;28;20048;-72
2022/07/29 03:35:37;;;;;;;4.65;1.70;;;15.30;99.90;;;;;;5045433;28;20091;-72
2022/07/29 03:38:03;;;;;;;7.13;1.73;;;15.20;99.90;;;;;;5045307;28;20048;-71
2022/07/29 03:40:40;;;;;;;5.43;1.75;;;15.20;99.90;;;;;;5046985;28;20036;-72
2022/07/29 03:43:08;;;;;;;3.47;1.80;;;15.20;99.90;;;;;;5046207;28;20651;-72
2022/07/29 03:45:35;;;;;;;6.05;1.75;;;15.20;99.90;;;;;;5044467;28;22346;-72
2022/07/29 03:48:06;;;;;;;4.97;1.67;;;15.20;99.90;;;;;;5044358;28;20045;-72
2022/07/29 03:50:33;;;;;;;4.57;1.90;;;15.20;99.90;;;;;;5045710;28;21561;-72
2022/07/29 03:52:59;;;;;;;3.47;1.65;;;15.10;99.90;;;;;;5030265;28;20700;-72
2022/07/29 03:55:28;;;;;;;5.47;1.83;;;15.10;99.90;;;;;;5044335;28;20049;-72
2022/07/29 03:57:56;;;;;;;3.05;1.75;;;15.10;99.90;;;;;;5044051;28;20059;-72
2022/07/29 04:00:24;;;;;;;5.40;1.80;;;15.10;99.90;;;;;;5044957;28;20095;-72
2022/07/29 04:02:50;;;;;;;6.22;1.90;;;15.10;99.90;;;;;;5046095;28;20121;-72
2022/07/29 04:05:17;;;;;;;4.55;2.05;;;15.10;99.90;;;;;;5042176;28;20548;-72
2022/07/29 04:07:46;;;;;;;2.45;1.45;;;15.10;99.90;;;;;;5043778;28;20037;-72
2022/07/29 04:10:12;;;;;;;3.65;1.77;;;15.10;99.90;;;;;;5027722;28;20115;-72
2022/07/29 04:12:38;;;;;;;5.70;1.90;;;15.10;99.90;;;;;;5045315;28;20171;-72
2022/07/29 04:15:04;;;;;;;4.32;1.77;;;15.10;99.90;;;;;;5047154;28;20052;-72
2022/07/29 04:17:30;;;;;;;6.03;1.70;;;15.10;99.90;;;;;;5046138;28;20395;-72
2022/07/29 04:19:56;;;;;;;5.35;1.80;;;15.10;99.90;;;;;;5043293;28;20037;-73
2022/07/29 04:22:21;;;;;;;4.03;2.03;;;15.00;99.90;;;;;;5043759;28;20048;-72
2022/07/29 04:24:47;;;;;;;3.75;1.77;;;15.10;99.90;;;;;;5044429;28;20044;-71
2022/07/29 04:27:13;;;;;;;4.60;2.00;;;15.10;99.90;;;;;;5041735;28;20051;-72
2022/07/29 04:29:38;;;;;;;3.78;1.67;;;15.10;99.90;;;;;;5025766;28;20040;-72
2022/07/29 04:32:04;;;;;;;6.22;2.08;;;15.00;99.90;;;;;;5023299;28;20045;-72
2022/07/29 04:34:30;;;;;;;4.18;1.80;;;15.00;99.90;;;;;;5039613;28;20411;-72
2022/07/29 04:36:56;;;;;;;4.32;2.15;;;15.00;99.90;;;;;;5040377;28;20049;-72
2022/07/29 04:39:21;;;;;;;4.15;1.70;;;15.00;99.90;;;;;;5043902;28;20044;-71
2022/07/29 04:41:47;;;;;;;5.13;2.00;;;15.10;99.90;;;;;;5041840;28;20038;-72
2022/07/29 04:44:13;;;;;;;5.82;2.20;;;15.10;99.90;;;;;;5043526;28;20047;-73
2022/07/29 04:46:38;;;;;;;4.82;2.03;;;15.10;99.90;;;;;;5045003;28;20048;-72
2022/07/29 04:49:04;;;;;;;3.80;1.85;;;15.10;99.90;;;;;;5043409;28;20041;-72
2022/07/29 04:51:30;;;;;;;4.05;1.90;;;15.10;99.90;;;;;;5012263;28;20049;-72
2022/07/29 04:53:56;;;;;;;4.43;2.05;;;15.10;99.90;;;;;;5043882;28;20051;-72
2022/07/29 04:56:22;;;;;;;3.20;1.88;;;15.10;99.90;;;;;;5042212;28;20510;-73
2022/07/29 04:58:48;;;;;;;4.82;2.00;;;15.10;99.90;;;;;;5042855;28;20036;-72
2022/07/29 05:01:14;;;;;;;3.80;2.47;;;15.10;99.90;;;;;;5040787;28;20044;-72
2022/07/29 05:03:40;;;;;;;5.28;1.98;;;15.10;99.90;;;;;;5026660;28;20041;-72
2022/07/29 05:06:06;;;;;;;4.75;1.77;;;15.10;99.90;;;;;;5043148;28;20049;-72
2022/07/29 05:08:31;;;;;;;4.07;2.00;;;15.10;99.90;;;;;;5043142;28;20471;-73
2022/07/29 05:10:57;;;;;;;3.70;1.52;;;15.10;99.90;;;;;;5029237;28;20045;-72
2022/07/29 05:13:23;;;;;;;3.90;1.92;;;15.10;99.90;;;;;;5042674;28;20041;-72
2022/07/29 05:15:49;;;;;;;6.18;2.10;;;15.10;99.90;;;;;;5040116;28;20586;-71
2022/07/29 05:18:15;;;;;;;3.50;1.90;;;15.10;99.90;;;;;;5042660;28;20046;-72
2022/07/29 05:20:41;;;;;;;4.05;1.88;;;15.10;99.90;;;;;;5043378;28;20695;-72
2022/07/29 05:23:06;;;;;;;3.35;1.63;;;15.10;99.90;;;;;;5044791;28;20041;-71
2022/07/29 05:25:33;;;;;;;3.80;2.15;;;15.10;99.90;;;;;;5043423;28;21072;-72
2022/07/29 05:27:58;;;;;;;3.35;1.88;;;15.20;99.90;;;;;;5041678;28;20041;-71
2022/07/29 05:30:25;;;;;;;4.63;1.98;;;15.20;99.90;;;;;;5042171;28;20589;-72
2022/07/29 05:32:50;;;;;;;3.55;1.85;;;15.20;99.90;;;;;;5042463;28;20099;-72
2022/07/29 05:35:16;;;;;;;4.00;1.55;;;15.20;99.90;;;;;;5039697;28;20468;-72
2022/07/29 05:37:42;;;;;;;2.72;1.67;;;15.20;99.90;;;;;;5043558;28;20056;-72
2022/07/29 05:40:08;;;;;;;6.35;2.05;;;15.30;99.90;;;;;;5041631;28;20495;-71
2022/07/29 05:42:34;;;;;;;2.92;1.60;;;15.30;99.90;;;;;;5044883;28;20119;-72
2022/07/29 05:45:01;;;;;;;6.20;2.13;;;15.30;99.90;;;;;;5042704;28;20080;-71
2022/07/29 05:47:26;;;;;;;6.47;2.00;;;15.30;99.90;;;;;;5025161;28;20414;-72
2022/07/29 05:49:53;;;;;;;5.07;2.08;;;15.40;99.90;;;;;;5026370;28;20049;-72
2022/07/29 05:52:19;;;;;;;4.88;1.70;;;15.40;99.90;;;;;;5041297;28;20064;-72
2022/07/29 05:54:45;;;;;;;3.85;1.65;;;15.50;99.90;;;;;;5040340;28;20482;-71
2022/07/29 05:57:17;;;;;;;4.03;1.80;;;15.50;99.90;;;;;;5042208;28;20411;-72
2022/07/29 05:59:42;;;;;;;6.53;1.75;;;15.60;99.90;;;;;;5040498;28;20120;-72
2022/07/29 06:02:08;;;;;;;5.50;1.92;;;15.70;99.90;;;;;;5040024;28;20464;-72
2022/07/29 06:04:34;;;;;;;5.53;2.20;;;15.70;99.90;;;;;;5041683;28;20044;-72
2022/07/29 06:06:59;;;;;;;5.20;2.22;;;15.80;99.90;;;;;;5039424;28;20029;-72
2022/07/29 06:09:25;;;;;;;4.45;1.88;;;15.90;99.90;;;;;;5044435;28;20098;-72
2022/07/29 06:11:52;;;;;;;4.45;1.55;;;16.00;99.90;;;;;;5040711;28;20128;-72
2022/07/29 06:14:18;;;;;;;3.88;2.03;;;16.00;99.90;;;;;;5037915;28;20094;-72
2022/07/29 06:16:44;;;;;;;4.85;2.10;;;16.00;99.90;;;;;;5039785;28;20052;-71
2022/07/29 06:19:10;;;;;;;7.03;2.08;;;16.10;99.90;;;;;;5044786;28;20411;-71
2022/07/29 06:21:36;;;;;;;6.05;2.00;;;16.20;99.90;;;;;;5040413;28;20098;-71
2022/07/29 06:24:02;;;;;;;6.15;1.98;;;16.30;99.90;;;;;;5024448;28;20052;-71
2022/07/29 06:26:27;;;;;;;5.60;1.80;;;16.30;99.90;;;;;;5018983;28;20045;-72
2022/07/29 06:28:53;;;;;;;7.07;1.90;;;16.40;99.90;;;;;;5040497;28;20094;-71
2022/07/29 06:31:19;;;;;;;3.63;1.70;;;16.40;99.90;;;;;;5036581;28;20041;-71
2022/07/29 06:33:44;;;;;;;6.20;2.08;;;16.50;99.90;;;;;;5042218;28;20033;-71
2022/07/29 06:36:10;;;;;;;4.10;2.08;;;16.50;99.90;;;;;;5044398;28;20052;-71
2022/07/29 06:38:38;;;;;;;5.82;1.80;;;16.60;99.90;;;;;;5046069;28;20061;-71
2022/07/29 06:41:05;;;;;;;4.80;1.90;;;16.60;99.90;;;;;;5039766;28;20095;-71
2022/07/29 06:43:39;;;;;;;5.10;1.95;;;16.60;99.90;;;;;;5036339;28;20044;-71
2022/07/29 06:46:13;;;;;;;3.60;2.00;;;16.50;99.90;;;;;;5036774;28;20037;-71
2022/07/29 06:48:40;;;;;;;4.30;1.98;;;16.50;99.90;;;;;;5048056;28;20048;-71
2022/07/29 06:51:06;;;;;;;7.22;2.50;;;16.60;99.90;;;;;;5053353;28;20071;-71
2022/07/29 06:53:33;;;;;;;8.30;2.10;;;16.60;99.90;;;;;;5048237;28;20045;-71
2022/07/29 06:56:00;;;;;;;4.22;1.85;;;16.70;99.90;;;;;;5048169;28;20102;-71
2022/07/29 06:58:26;;;;;;;3.00;1.63;;;16.70;99.90;;;;;;5051470;28;20033;-72
2022/07/29 07:00:52;;;;;;;5.75;1.92;;;16.70;99.90;;;;;;5052785;28;20040;-71
2022/07/29 07:03:18;;;;;;;6.45;1.92;;;16.70;99.90;;;;;;5047388;28;20035;-71
2022/07/29 07:05:44;;;;;;;3.78;2.00;;;16.70;99.90;;;;;;5049007;28;20087;-71
2022/07/29 07:08:11;;;;;;;6.53;2.22;;;16.70;99.90;;;;;;5051770;28;20056;-71
2022/07/29 07:10:37;;;;;;;5.20;2.05;;;16.80;99.90;;;;;;5050306;28;20384;-71
2022/07/29 07:13:04;;;;;;;4.25;1.90;;;16.80;99.90;;;;;;5054992;28;20052;-71
2022/07/29 07:15:29;;;;;;;6.47;1.70;;;16.80;99.90;;;;;;5047903;28;20079;-71
2022/07/29 07:17:55;;;;;;;5.07;2.00;;;16.80;99.90;;;;;;5040054;28;20073;-71
2022/07/29 07:20:21;;;;;;;5.63;2.05;;;16.80;99.90;;;;;;5042643;28;20091;-71
2022/07/29 07:22:47;;;;;;;4.57;2.08;;;16.80;99.90;;;;;;5051414;28;20028;-71
2022/07/29 07:25:13;;;;;;;8.43;2.35;;;16.80;99.90;;;;;;5046403;28;20536;-69
2022/07/29 07:27:38;;;;;;;9.32;2.25;;;16.80;99.90;;;;;;5051998;28;20033;-72
2022/07/29 07:30:06;;;;;;;9.38;1.95;;;16.80;99.90;;;;;;5047928;28;20095;-72
2022/07/29 07:32:33;;;;;;;4.78;1.90;;;16.90;99.90;;;;;;5031905;28;20136;-71
2022/07/29 07:34:59;;;;;;;6.78;2.10;;;17.00;99.90;;;;;;5037552;28;20496;-71
2022/07/29 07:37:25;;;;;;;7.50;2.28;;;17.10;99.90;;;;;;5035434;28;20043;-70
2022/07/29 07:39:51;;;;;;;7.88;2.20;;;17.20;99.90;;;;;;5044223;28;20033;-71
2022/07/29 07:42:17;;;;;;;8.57;2.00;;;17.20;99.90;;;;;;5047852;28;20059;-71
2022/07/29 07:44:45;;;;;;;5.85;2.17;;;17.30;99.90;;;;;;5062111;28;20068;-72
2022/07/29 07:47:11;;;;;;;9.75;2.42;;;17.30;99.90;;;;;;5058598;28;20049;-72
2022/07/29 07:49:37;;;;;;;4.80;2.10;;;17.40;99.90;;;;;;5054108;28;20052;-72
2022/07/29 07:52:03;;;;;;;4.05;2.08;;;17.40;99.90;;;;;;5050266;28;20411;-72
2022/07/29 07:54:29;;;;;;;4.22;2.00;;;17.40;99.90;;;;;;5049130;28;20029;-72
2022/07/29 07:56:54;;;;;;;6.90;2.28;;;17.50;99.90;;;;;;5047177;28;20040;-72
2022/07/29 07:59:20;;;;;;;3.60;2.13;;;17.50;99.90;;;;;;5049896;28;20041;-72
2022/07/29 08:01:46;;;;;;;7.10;2.25;;;17.60;99.90;;;;;;5047637;28;20120;-72
2022/07/29 08:04:11;;;;;;;3.72;2.05;;;17.70;99.90;;;;;;5047909;28;20040;-72
2022/07/29 08:06:37;;;;;;;5.53;2.65;;;17.70;99.90;;;;;;5047289;28;20040;-72
2022/07/29 08:09:04;;;;;;;5.65;2.00;;;17.80;99.90;;;;;;5050791;28;20052;-72
2022/07/29 08:11:31;;;;;;;5.45;2.20;;;17.90;99.90;;;;;;5051753;28;20320;-72
2022/07/29 08:13:57;;;;;;;5.88;2.20;;;17.90;99.90;;;;;;5042351;28;20046;-73
2022/07/29 08:16:24;;;;;;;5.47;2.03;;;18.00;99.90;;;;;;5047862;28;20041;-72
2022/07/29 08:18:51;;;;;;;7.57;2.00;;;18.10;99.90;;;;;;5048995;28;20036;-72
2022/07/29 08:21:17;;;;;;;7.07;2.45;;;18.20;99.90;;;;;;5046123;28;20562;-71
2022/07/29 08:23:46;;;;;;;5.80;2.20;;;18.30;99.90;;;;;;5046058;28;20041;-72
2022/07/29 08:26:13;;;;;;;5.72;2.20;;;18.40;99.90;;;;;;5063822;28;20045;-72
2022/07/29 08:28:49;;;;;;;7.10;1.92;;;18.50;99.90;;;;;;5047035;28;20059;-73
2022/07/29 08:31:15;;;;;;;6.57;2.10;;;18.50;99.90;;;;;;5045379;28;20041;-73
2022/07/29 08:33:41;;;;;;;11.02;2.63;;;18.60;99.90;;;;;;5039282;28;20107;-73
2022/07/29 08:36:07;;;;;;;5.43;2.17;;;18.60;99.90;;;;;;5045435;28;20049;-72
2022/07/29 08:38:33;;;;;;;6.30;1.98;;;18.60;99.90;;;;;;5051952;28;20375;-72
2022/07/29 08:41:00;;;;;;;4.93;2.00;;;18.70;99.90;;;;;;5043095;28;20120;-73
2022/07/29 08:43:30;;;;;;;4.60;2.25;;;18.70;99.90;;;;;;5035107;28;20400;-71
2022/07/29 08:45:55;;;;;;;9.50;2.20;;;18.70;99.90;;;;;;5038635;28;20399;-74
2022/07/29 08:48:23;;;;;;;5.10;2.20;;;18.70;99.90;;;;;;5041090;28;20040;-75
2022/07/29 08:50:56;;;;;;;7.60;2.10;;;18.60;99.90;;;;;;5043851;28;20084;-74
2022/07/29 08:53:26;;;;;;;8.93;2.00;;;18.70;99.90;;;;;;5065380;28;20042;-74
2022/07/29 08:55:52;;;;;;;6.82;2.10;;;18.60;99.90;;;;;;5048992;28;20044;-73
2022/07/29 08:58:19;;;;;;;3.33;1.80;;;18.60;99.90;;;;;;5047519;28;20033;-73
2022/07/29 09:00:52;;;;;;;6.07;2.15;;;18.60;99.90;;;;;;5046598;28;20068;-73
2022/07/29 09:03:22;;;;;;;4.60;2.08;;;18.60;99.90;;;;;;5045091;28;20043;-74
2022/07/29 09:05:48;;;;;;;7.32;2.15;;;18.50;99.90;;;;;;5047169;28;20041;-74
2022/07/29 09:08:15;;;;;;;10.63;2.15;;;18.50;99.90;;;;;;5045519;28;20040;-73
2022/07/29 09:10:41;;;;;;;9.80;2.20;;;18.50;99.90;;;;;;5050220;28;20033;-72
2022/07/29 09:13:07;;;;;;;13.05;2.20;;;18.50;99.90;;;;;;5013287;28;20044;-72
2022/07/29 09:15:33;;;;;;;9.43;2.50;;;18.50;99.90;;;;;;5027181;28;22348;-73
2022/07/29 09:17:59;;;;;;;6.20;2.47;;;18.50;99.90;;;;;;5046303;28;20033;-73
2022/07/29 09:21:57;;;;;;;7.20;2.38;;;18.50;99.90;;;;;;5045313;28;20123;-73
2022/07/29 09:23:13;;;;;;;7.13;2.20;;;18.40;99.90;;;;;;5043105;28;20068;-73
2022/07/29 09:25:40;;;;;;;9.13;2.58;;;18.40;99.90;;;;;;5038910;28;20075;-72
2022/07/29 09:28:16;;;;;;;6.43;2.30;;;18.50;99.90;;;;;;5044682;28;20041;-72
2022/07/29 09:30:52;;;;;;;8.30;2.38;;;18.50;99.90;;;;;;5047252;28;20056;-71
2022/07/29 09:33:19;;;;;;;5.90;2.50;;;18.50;99.90;;;;;;5055023;28;20045;-72
2022/07/29 09:35:44;;;;;;;5.68;2.30;;;18.50;99.90;;;;;;5041745;28;20055;-73
2022/07/29 09:38:12;;;;;;;5.80;2.50;;;18.40;99.90;;;;;;5042705;28;20131;-73
2022/07/29 09:40:38;;;;;;;8.52;2.33;;;18.50;99.90;;;;;;5040950;28;20039;-73
2022/07/29 09:43:11;;;;;;;6.05;2.25;;;18.50;99.90;;;;;;5045324;28;20036;-73
2022/07/29 09:45:37;;;;;;;4.28;2.13;;;18.50;99.90;;;;;;5044209;28;20128;-73
2022/07/29 09:48:20;;;;;;;7.45;2.30;;;18.50;99.90;;;;;;5049656;28;20079;-73
2022/07/29 09:50:49;;;;;;;9.57;2.50;;;18.50;99.90;;;;;;5038768;28;20139;-73
2022/07/29 09:53:35;;;;;;;7.68;2.22;;;18.60;99.90;;;;;;5034481;28;20087;-73
2022/07/29 09:56:01;;;;;;;8.02;2.10;;;18.60;99.90;;;;;;5045005;28;20045;-73
2022/07/29 09:58:27;;;;;;;5.68;2.45;;;18.70;99.90;;;;;;5052232;28;20037;-73
2022/07/29 10:00:55;;;;;;;8.77;2.45;;;18.70;99.90;;;;;;5044558;28;20038;-73
2022/07/29 10:03:21;;;;;;;6.32;2.45;;;18.80;99.90;;;;;;5038580;28;20059;-73
2022/07/29 10:06:08;;;;;;;5.10;2.45;;;18.80;99.90;;;;;;5044206;28;20037;-73
2022/07/29 10:08:34;;;;;;;7.78;2.58;;;18.90;99.90;;;;;;5041826;28;20111;-74
2022/07/29 10:11:15;;;;;;;6.30;2.30;;;19.00;99.90;;;;;;5040335;28;20051;-74
2022/07/29 10:13:42;;;;;;;6.72;2.63;;;19.00;99.90;;;;;;5041180;28;20459;-73
2022/07/29 10:16:09;;;;;;;9.00;2.60;;;19.00;99.90;;;;;;5044181;28;20036;-72
2022/07/29 10:18:35;;;;;;;6.60;2.50;;;19.10;99.90;;;;;;5043819;28;20033;-72
2022/07/29 10:21:01;;;;;;;7.75;2.35;;;19.20;99.90;;;;;;5043342;28;20572;-72
2022/07/29 10:23:29;;;;;;;8.05;2.92;;;19.20;99.90;;;;;;5038409;28;20044;-72
2022/07/29 10:25:55;;;;;;;5.45;2.20;;;19.30;99.90;;;;;;5013001;28;20052;-72
2022/07/29 10:28:20;;;;;;;5.78;2.30;;;19.40;99.90;;;;;;5045879;28;20095;-72
2022/07/29 10:30:50;;;;;;;11.52;2.40;;;19.50;99.90;;;;;;5042332;28;20049;-72
2022/07/29 10:33:30;;;;;;;4.25;2.40;;;19.60;99.90;;;;;;5021327;28;20056;-73
2022/07/29 10:36:15;;;;;;;6.93;2.40;;;19.70;99.90;;;;;;5036611;28;20042;-72
2022/07/29 10:38:46;;;;;;;4.88;2.35;;;19.80;99.90;;;;;;5037482;28;20045;-72
2022/07/29 10:41:27;;;;;;;4.70;2.40;;;19.90;99.90;;;;;;5037746;28;20406;-72
2022/07/29 10:44:17;;;;;;;7.40;2.42;;;20.10;99.90;;;;;;5042067;28;20445;-72
2022/07/29 10:46:44;;;;;;;6.95;2.20;;;20.30;99.90;;;;;;5037271;28;20033;-72
2022/07/29 10:49:16;;;;;;;10.85;2.47;;;20.40;99.90;;;;;;5040235;28;20289;-72
2022/07/29 10:51:52;;;;;;;6.85;2.03;;;20.50;99.90;;;;;;5043793;28;20437;-71
2022/07/29 10:54:39;;;;;;;4.40;1.80;;;20.60;99.90;;;;;;5041186;28;20403;-71
2022/07/29 10:57:20;;;;;;;4.35;2.28;;;20.70;99.90;;;;;;5038229;28;20464;-71
2022/07/29 11:00:03;;;;;;;7.25;2.38;;;20.80;99.90;;;;;;5038450;28;20127;-71
2022/07/29 11:02:39;;;;;;;6.80;2.28;;;21.00;99.90;;;;;;5039918;28;20093;-72
2022/07/29 11:05:23;;;;;;;6.75;2.35;;;21.10;99.90;;;;;;5039151;28;20042;-72
2022/07/29 11:08:13;;;;;;;5.25;2.30;;;21.30;99.90;;;;;;5036756;28;20476;-72
2022/07/29 11:10:40;;;;;;;5.53;2.42;;;21.40;99.90;;;;;;5035470;28;20043;-72
2022/07/29 11:13:05;;;;;;;8.18;2.22;;;21.50;99.90;;;;;;5038575;28;20412;-71
2022/07/29 11:15:54;;;;;;;6.38;2.50;;;21.70;99.90;;;;;;5040000;28;20045;-72
2022/07/29 11:18:20;;;;;;;5.35;2.35;;;21.90;99.90;;;;;;5035149;28;20422;-72
2022/07/29 11:20:49;;;;;;;4.78;2.50;;;22.00;99.90;;;;;;5047055;28;20033;-72
2022/07/29 11:23:35;;;;;;;6.10;2.03;;;22.00;99.90;;;;;;5042151;28;20615;-71
2022/07/29 11:26:13;;;;;;;5.07;2.13;;;22.10;99.90;;;;;;5040625;28;20041;-71
2022/07/29 11:29:17;;;;;;;7.82;2.50;;;22.10;99.90;;;;;;5050675;28;20496;-71
2022/07/29 11:31:45;;;;;;;5.55;2.20;;;22.00;99.90;;;;;;5042331;28;20080;-71
2022/07/29 11:34:32;;;;;;;5.75;2.33;;;22.10;99.90;;;;;;5065610;28;20076;-71
2022/07/29 11:37:06;;;;;;;9.88;2.65;;;22.10;99.90;;;;;;5050914;28;20523;-72
2022/07/29 11:39:33;;;;;;;11.07;2.40;;;22.10;99.90;;;;;;5047791;28;20507;-72
2022/07/29 11:42:24;;;;;;;8.43;2.45;;;22.10;99.90;;;;;;5039775;28;20507;-72
2022/07/29 11:44:57;;;;;;;7.00;2.40;;;22.10;99.90;;;;;;5049509;28;20541;-72
2022/07/29 11:47:23;;;;;;;6.63;2.13;;;22.10;99.90;;;;;;5050315;28;20033;-72
2022/07/29 11:49:54;;;;;;;7.45;2.42;;;22.10;99.90;;;;;;5043106;28;20541;-72
2022/07/29 11:52:20;;;;;;;6.53;2.63;;;22.00;99.90;;;;;;5050975;28;20048;-72
2022/07/29 11:54:50;;;;;;;5.20;2.30;;;22.00;99.90;;;;;;5044113;28;20504;-72
2022/07/29 11:57:18;;;;;;;8.70;2.60;;;22.00;99.90;;;;;;5040517;28;20044;-72
2022/07/29 11:59:46;;;;;;;9.90;2.33;;;22.00;99.90;;;;;;5044557;28;20033;-72
2022/07/29 12:02:13;;;;;;;7.07;2.33;;;22.10;99.90;;;;;;5037441;28;20492;-71
2022/07/29 12:04:56;;;;;;;7.32;2.35;;;22.10;99.90;;;;;;5039270;28;20483;-72
2022/07/29 12:07:32;;;;;;;6.63;2.30;;;22.20;99.90;;;;;;5048468;28;20036;-72
2022/07/29 12:09:58;;;;;;;7.90;2.70;;;22.40;99.90;;;;;;5047573;28;20047;-72
2022/07/29 12:12:24;;;;;;;8.20;2.70;;;22.50;99.90;;;;;;5034349;28;20448;-72
2022/07/29 12:14:51;;;;;;;6.40;2.38;;;22.70;99.90;;;;;;5045109;28;20071;-72
2022/07/29 12:17:27;;;;;;;6.18;2.50;;;22.90;99.90;;;;;;5051810;28;20037;-72
2022/07/29 12:19:53;;;;;;;7.97;2.50;;;23.30;99.90;;;;;;5040281;28;20598;-72
2022/07/29 12:22:43;;;;;;;9.80;2.90;;;23.70;99.90;;;;;;5046182;28;20494;-72
2022/07/29 12:25:18;;;;;;;5.32;2.17;;;24.30;99.90;;;;;;5045599;28;20137;-72
2022/07/29 12:27:44;;;;;;;10.05;2.33;;;24.80;99.90;;;;;;5041741;28;20373;-73
2022/07/29 12:30:15;;;;;;;8.20;2.47;;;25.30;99.90;;;;;;5041562;28;20502;-72
2022/07/29 12:32:47;;;;;;;6.50;2.35;;;25.70;99.90;;;;;;5040472;28;20045;-73
2022/07/29 12:35:19;;;;;;;7.32;2.42;;;26.00;98.80;;;;;;5039261;28;20407;-73
2022/07/29 12:37:47;;;;;;;9.50;2.50;;;26.20;98.30;;;;;;5040546;28;20479;-72
2022/07/29 12:40:16;;;;;;;5.28;2.30;;;26.20;95.10;;;;;;5032315;28;20037;-72
2022/07/29 12:43:04;;;;;;;7.00;2.55;;;26.10;92.90;;;;;;5044476;28;20480;-73
2022/07/29 12:45:31;;;;;;;6.47;2.28;;;26.00;93.50;;;;;;5042763;28;20072;-73
2022/07/29 12:47:57;;;;;;;10.93;2.35;;;26.00;93.10;;;;;;5049330;28;20478;-73
2022/07/29 12:50:24;;;;;;;5.28;2.10;;;26.10;92.50;;;;;;5045736;28;20040;-73
2022/07/29 12:52:50;;;;;;;12.73;2.70;;;26.30;91.50;;;;;;5041431;28;20503;-74
2022/07/29 12:55:36;;;;;;;9.60;2.65;;;26.40;90.30;;;;;;5043118;28;20072;-74
2022/07/29 12:58:02;;;;;;;9.65;2.60;;;26.40;91.80;;;;;;5042123;28;20039;-76
2022/07/29 13:00:28;;;;;;;6.25;2.20;;;26.50;91.30;;;;;;5041722;28;20037;-76
2022/07/29 13:02:56;;;;;;;8.57;2.80;;;26.30;90.70;;;;;;5042020;28;20037;-77